Weather at Taber Airport

Public forecast

Using degrees Celsius for public forecast. Weather courtesy of forecast.io.

Closest aviation weather report (METAR) to Taber Airport

Closest report is Lethbridge County Airport, 26.6 nm (49.3 km) WSW.

2024/07/15 13:00 (retrieved 1 hour ago)

CYQL 151300Z 18003KT 30SM SCT110 12/11 A3001 RMK AC3 SLP155 DENSITY ALT 3400FT

Closest aviation forecast (TAF) to Taber Airport

Closest forecast is Lethbridge County Airport, 26.6 nm (49.3 km) WSW.

2024/07/15 13:09 Ammendment (retrieved 1 hour ago)

TAF AMD CYQL 151307Z 1513/1524 18005KT P6SM SCT100 BECMG 1519/1521 02010KT RMK NXT FCST BY 151800Z